Airfield :
LOGIN :

Register | Disclaimer

   EN    FR    IT 

 










Legend :    VFR   Marginal VFR   IFR   Intensive IFR   Very Intensive IFR
Visi :
Ceiling :
>= 8 km
>= 3000ft
5 to 8 km
1000 to 3000 ft
1500m to 5 km
500 to 1000 ft
800 to 1500m
200 to 500 ft
< 800m
< 200 ft
Symbols :   Thunderstorms  Fog  Heavy snow  Heavy precipitations  Wind > 20 kt
SIGMETs :     Misc.  Thunderstorms  Icing  Turbulence  Mountain Waves  Volcanic Ashes






- Airport Elevation : 433 ft
- IATA code : CCF


LFMK - Carcassonne

CURRENT METAR :
  • 211800Z AUTO 08015KT 5000 DZ BR OVC005 17/16 Q1012 TEMPO 07020G30KT BECMG NSW

EXPIRED METARs :
  • 211730Z AUTO 08020KT 5000 DZ BR OVC005 17/16 Q1011 TEMPO 07020G30KT BECMG NSW
  • 211700Z AUTO 07017KT 5000 -RA BR OVC006 17/16 Q1011 TEMPO 07020G30KT OVC003
  • 211630Z AUTO 07021KT 7000 OVC007 17/16 Q1011 TEMPO 07020G30KT OVC003
  • 211600Z AUTO 07020KT 8000 OVC007 17/16 Q1011 TEMPO 07020G30KT OVC003
  • 211530Z AUTO 07019KT 8000 BKN008 BKN015 OVC020 18/16 Q1011 TEMPO 07020G30KT OVC003

TAF AMD TAF LFMK
Valid from the 21 at 15:00 until the 22 at 15:00 UTC


211551Z 2115/2215 09015KT 9999 OVC020
TEMPO 2115/2215 07020G30KT OVC006
PROB40
TEMPO 2117/2209 OVC003
PROB30
TEMPO 2212/2215 -RA OVC005



MET'MAP, your aeronautical weather chart ! - Copyright ORBIFLY December 2007 - Disclaimer

ORBIFLY MET'MAP TEAM :

Programming & Development : Alexandra Zaïnal
Concept & original design : Baudouin d'Aumeries
Assistance for programming : Marc-Olivier Méhu
Technical & hardware support : Manuel Goepfert

Contact : metmap@orbifly.com




SOURCES & CREDITS :

   NOAA